sensor_id;sensor_type;location;lat;lon;timestamp;pressure;altitude;pressure_sealevel;temperature;humidity
58662;BME280;44432;49.786;22.760;2022-12-29T00:01:57;99597.39;;;3.36;60.33
58662;BME280;44432;49.786;22.760;2022-12-29T00:04:28;99594.95;;;3.36;60.05
58662;BME280;44432;49.786;22.760;2022-12-29T00:06:59;99591.77;;;3.34;60.02
58662;BME280;44432;49.786;22.760;2022-12-29T00:09:30;99587.60;;;3.34;59.80
58662;BME280;44432;49.786;22.760;2022-12-29T00:12:02;99593.54;;;3.36;59.75
58662;BME280;44432;49.786;22.760;2022-12-29T00:14:33;99603.09;;;3.41;59.61
58662;BME280;44432;49.786;22.760;2022-12-29T00:17:22;99603.25;;;3.44;59.60
58662;BME280;44432;49.786;22.760;2022-12-29T00:19:53;99603.83;;;3.49;59.32
58662;BME280;44432;49.786;22.760;2022-12-29T00:22:41;99603.80;;;3.52;59.00
58662;BME280;44432;49.786;22.760;2022-12-29T00:25:30;99593.92;;;3.55;58.96
58662;BME280;44432;49.786;22.760;2022-12-29T00:28:18;99594.48;;;3.57;59.08
58662;BME280;44432;49.786;22.760;2022-12-29T00:31:09;99593.92;;;3.58;58.89
58662;BME280;44432;49.786;22.760;2022-12-29T00:33:59;99591.19;;;3.60;58.90
58662;BME280;44432;49.786;22.760;2022-12-29T00:36:48;99583.52;;;3.60;58.76
58662;BME280;44432;49.786;22.760;2022-12-29T00:39:19;99583.72;;;3.60;58.65
58662;BME280;44432;49.786;22.760;2022-12-29T00:42:08;99585.85;;;3.61;58.27
58662;BME280;44432;49.786;22.760;2022-12-29T00:44:56;99585.42;;;3.65;58.29
58662;BME280;44432;49.786;22.760;2022-12-29T00:47:27;99590.45;;;3.67;58.22
58662;BME280;44432;49.786;22.760;2022-12-29T00:49:58;99598.29;;;3.69;58.26
58662;BME280;44432;49.786;22.760;2022-12-29T00:52:29;99599.79;;;3.69;58.14
58662;BME280;44432;49.786;22.760;2022-12-29T00:54:59;99603.59;;;3.70;57.81
58662;BME280;44432;49.786;22.760;2022-12-29T00:57:30;99601.04;;;3.71;58.04
58662;BME280;44432;49.786;22.760;2022-12-29T01:00:01;99598.23;;;3.72;57.92
58662;BME280;44432;49.786;22.760;2022-12-29T01:02:32;99599.65;;;3.79;57.62
58662;BME280;44432;49.786;22.760;2022-12-29T01:05:04;99598.61;;;3.84;57.38
58662;BME280;44432;49.786;22.760;2022-12-29T01:07:34;99594.77;;;3.90;57.35
58662;BME280;44432;49.786;22.760;2022-12-29T01:10:06;99596.05;;;3.93;57.08
58662;BME280;44432;49.786;22.760;2022-12-29T01:12:40;99590.46;;;3.95;57.01
58662;BME280;44432;49.786;22.760;2022-12-29T01:15:13;99586.67;;;3.94;56.86
58662;BME280;44432;49.786;22.760;2022-12-29T01:17:44;99577.69;;;3.93;56.83
58662;BME280;44432;49.786;22.760;2022-12-29T01:20:15;99575.66;;;3.93;56.78
58662;BME280;44432;49.786;22.760;2022-12-29T01:22:46;99572.27;;;3.90;56.74
58662;BME280;44432;49.786;22.760;2022-12-29T01:25:17;99572.70;;;3.88;56.49
58662;BME280;44432;49.786;22.760;2022-12-29T01:27:48;99571.77;;;3.85;56.45
58662;BME280;44432;49.786;22.760;2022-12-29T01:30:19;99561.23;;;3.83;56.44
58662;BME280;44432;49.786;22.760;2022-12-29T01:32:50;99559.92;;;3.82;56.53
58662;BME280;44432;49.786;22.760;2022-12-29T01:35:20;99554.77;;;3.82;56.55
58662;BME280;44432;49.786;22.760;2022-12-29T01:37:51;99549.80;;;3.81;56.43
58662;BME280;44432;49.786;22.760;2022-12-29T01:40:22;99555.03;;;3.79;56.30
58662;BME280;44432;49.786;22.760;2022-12-29T01:42:53;99555.67;;;3.78;56.29
58662;BME280;44432;49.786;22.760;2022-12-29T01:45:24;99551.05;;;3.77;56.16
58662;BME280;44432;49.786;22.760;2022-12-29T01:47:57;99543.56;;;3.76;56.12
58662;BME280;44432;49.786;22.760;2022-12-29T01:50:32;99543.57;;;3.73;55.99
58662;BME280;44432;49.786;22.760;2022-12-29T01:53:06;99539.94;;;3.76;55.90
58662;BME280;44432;49.786;22.760;2022-12-29T01:55:43;99532.54;;;3.75;56.09
58662;BME280;44432;49.786;22.760;2022-12-29T01:58:17;99531.42;;;3.72;55.62
58662;BME280;44432;49.786;22.760;2022-12-29T02:00:50;99530.99;;;3.70;55.78
58662;BME280;44432;49.786;22.760;2022-12-29T02:03:23;99527.83;;;3.67;55.69
58662;BME280;44432;49.786;22.760;2022-12-29T02:05:58;99529.07;;;3.65;55.67
58662;BME280;44432;49.786;22.760;2022-12-29T02:08:33;99529.03;;;3.65;55.55
58662;BME280;44432;49.786;22.760;2022-12-29T02:11:04;99534.78;;;3.68;55.48
58662;BME280;44432;49.786;22.760;2022-12-29T02:13:35;99532.79;;;3.68;55.51
58662;BME280;44432;49.786;22.760;2022-12-29T02:16:17;99526.48;;;3.66;55.24
58662;BME280;44432;49.786;22.760;2022-12-29T02:18:55;99522.96;;;3.67;54.87
58662;BME280;44432;49.786;22.760;2022-12-29T02:21:53;99523.10;;;3.67;54.83
58662;BME280;44432;49.786;22.760;2022-12-29T02:27:51;99519.83;;;3.64;54.93
58662;BME280;44432;49.786;22.760;2022-12-29T02:30:53;99516.60;;;3.63;54.64
58662;BME280;44432;49.786;22.760;2022-12-29T02:33:37;99508.64;;;3.62;54.78
58662;BME280;44432;49.786;22.760;2022-12-29T02:36:18;99506.02;;;3.60;54.53
58662;BME280;44432;49.786;22.760;2022-12-29T02:39:02;99503.15;;;3.59;54.59
58662;BME280;44432;49.786;22.760;2022-12-29T02:41:42;99499.33;;;3.59;54.59
58662;BME280;44432;49.786;22.760;2022-12-29T02:44:21;99490.39;;;3.57;54.62
58662;BME280;44432;49.786;22.760;2022-12-29T02:47:00;99482.91;;;3.53;54.43
58662;BME280;44432;49.786;22.760;2022-12-29T02:49:38;99480.02;;;3.53;54.19
58662;BME280;44432;49.786;22.760;2022-12-29T02:52:15;99479.20;;;3.53;54.01
58662;BME280;44432;49.786;22.760;2022-12-29T02:54:49;99478.96;;;3.53;53.91
58662;BME280;44432;49.786;22.760;2022-12-29T02:57:32;99476.06;;;3.59;53.33
58662;BME280;44432;49.786;22.760;2022-12-29T03:00:07;99481.32;;;3.72;53.29
58662;BME280;44432;49.786;22.760;2022-12-29T03:03:12;99480.44;;;3.77;53.24
58662;BME280;44432;49.786;22.760;2022-12-29T03:06:20;99489.77;;;3.87;52.48
58662;BME280;44432;49.786;22.760;2022-12-29T03:09:00;99499.14;;;3.94;52.54
58662;BME280;44432;49.786;22.760;2022-12-29T03:11:41;99502.60;;;3.94;52.43
58662;BME280;44432;49.786;22.760;2022-12-29T03:14:35;99504.43;;;3.93;52.29
58662;BME280;44432;49.786;22.760;2022-12-29T03:17:29;99498.55;;;3.93;52.29
58662;BME280;44432;49.786;22.760;2022-12-29T03:20:08;99499.56;;;3.91;52.19
58662;BME280;44432;49.786;22.760;2022-12-29T03:22:44;99502.50;;;3.90;52.06
58662;BME280;44432;49.786;22.760;2022-12-29T03:25:20;99502.21;;;3.88;52.11
58662;BME280;44432;49.786;22.760;2022-12-29T03:27:56;99502.92;;;3.84;52.26
58662;BME280;44432;49.786;22.760;2022-12-29T03:30:29;99500.74;;;3.84;51.86
58662;BME280;44432;49.786;22.760;2022-12-29T03:33:04;99495.88;;;3.82;52.09
58662;BME280;44432;49.786;22.760;2022-12-29T03:35:40;99492.58;;;3.84;51.83
58662;BME280;44432;49.786;22.760;2022-12-29T03:38:16;99496.21;;;3.84;51.90
58662;BME280;44432;49.786;22.760;2022-12-29T03:40:50;99496.80;;;3.83;51.79
58662;BME280;44432;49.786;22.760;2022-12-29T03:43:21;99490.59;;;3.81;51.79
58662;BME280;44432;49.786;22.760;2022-12-29T03:45:52;99494.80;;;3.82;51.54
58662;BME280;44432;49.786;22.760;2022-12-29T03:48:23;99487.19;;;3.82;51.44
58662;BME280;44432;49.786;22.760;2022-12-29T03:50:54;99487.06;;;3.82;51.29
58662;BME280;44432;49.786;22.760;2022-12-29T03:53:25;99496.69;;;3.81;51.21
58662;BME280;44432;49.786;22.760;2022-12-29T03:55:55;99501.13;;;3.80;51.24
58662;BME280;44432;49.786;22.760;2022-12-29T03:58:26;99503.78;;;3.80;51.23
58662;BME280;44432;49.786;22.760;2022-12-29T04:00:57;99505.67;;;3.79;51.19
58662;BME280;44432;49.786;22.760;2022-12-29T04:03:28;99502.66;;;3.76;50.93
58662;BME280;44432;49.786;22.760;2022-12-29T04:05:59;99506.81;;;3.76;51.03
58662;BME280;44432;49.786;22.760;2022-12-29T04:08:30;99508.31;;;3.77;50.79
58662;BME280;44432;49.786;22.760;2022-12-29T04:11:01;99504.17;;;3.78;50.82
58662;BME280;44432;49.786;22.760;2022-12-29T04:13:31;99501.40;;;3.79;50.75
58662;BME280;44432;49.786;22.760;2022-12-29T04:16:02;99495.13;;;3.81;50.47
58662;BME280;44432;49.786;22.760;2022-12-29T04:18:33;99494.05;;;3.83;50.56
58662;BME280;44432;49.786;22.760;2022-12-29T04:21:05;99494.77;;;3.84;50.31
58662;BME280;44432;49.786;22.760;2022-12-29T04:23:37;99491.73;;;3.87;50.32
58662;BME280;44432;49.786;22.760;2022-12-29T04:26:08;99496.92;;;3.92;50.46
58662;BME280;44432;49.786;22.760;2022-12-29T04:28:39;99495.22;;;3.93;50.35
58662;BME280;44432;49.786;22.760;2022-12-29T04:31:10;99496.46;;;3.94;50.38
58662;BME280;44432;49.786;22.760;2022-12-29T04:33:41;99503.97;;;3.96;50.07
58662;BME280;44432;49.786;22.760;2022-12-29T04:36:12;99499.66;;;3.97;49.69
58662;BME280;44432;49.786;22.760;2022-12-29T04:38:42;99502.08;;;3.99;49.89
58662;BME280;44432;49.786;22.760;2022-12-29T04:41:13;99504.03;;;4.00;50.05
58662;BME280;44432;49.786;22.760;2022-12-29T04:43:44;99494.17;;;4.00;49.89
58662;BME280;44432;49.786;22.760;2022-12-29T04:46:15;99482.09;;;3.99;49.96
58662;BME280;44432;49.786;22.760;2022-12-29T04:48:46;99485.59;;;3.97;49.91
58662;BME280;44432;49.786;22.760;2022-12-29T04:51:17;99482.95;;;3.96;49.94
58662;BME280;44432;49.786;22.760;2022-12-29T04:53:48;99492.55;;;3.94;50.02
58662;BME280;44432;49.786;22.760;2022-12-29T04:56:18;99494.86;;;3.91;49.77
58662;BME280;44432;49.786;22.760;2022-12-29T04:58:49;99485.10;;;3.88;49.54
58662;BME280;44432;49.786;22.760;2022-12-29T05:01:20;99480.95;;;3.88;49.57
58662;BME280;44432;49.786;22.760;2022-12-29T05:03:52;99480.17;;;3.87;49.79
58662;BME280;44432;49.786;22.760;2022-12-29T05:06:23;99481.48;;;3.86;49.78
58662;BME280;44432;49.786;22.760;2022-12-29T05:08:54;99485.89;;;3.86;49.87
58662;BME280;44432;49.786;22.760;2022-12-29T05:11:24;99480.73;;;3.85;49.96
58662;BME280;44432;49.786;22.760;2022-12-29T05:13:55;99477.50;;;3.85;49.75
58662;BME280;44432;49.786;22.760;2022-12-29T05:16:26;99471.62;;;3.84;49.81
58662;BME280;44432;49.786;22.760;2022-12-29T05:18:56;99478.64;;;3.84;49.83
58662;BME280;44432;49.786;22.760;2022-12-29T05:21:28;99483.02;;;3.84;49.96
58662;BME280;44432;49.786;22.760;2022-12-29T05:23:59;99482.36;;;3.83;49.84
58662;BME280;44432;49.786;22.760;2022-12-29T05:26:30;99469.83;;;3.83;49.95
58662;BME280;44432;49.786;22.760;2022-12-29T05:29:01;99466.52;;;3.84;49.90
58662;BME280;44432;49.786;22.760;2022-12-29T05:31:32;99461.44;;;3.87;49.80
58662;BME280;44432;49.786;22.760;2022-12-29T05:34:05;99464.54;;;3.88;49.70
58662;BME280;44432;49.786;22.760;2022-12-29T05:36:35;99477.79;;;3.90;49.67
58662;BME280;44432;49.786;22.760;2022-12-29T05:39:06;99472.59;;;3.93;49.51
58662;BME280;44432;49.786;22.760;2022-12-29T05:41:37;99473.60;;;3.97;49.86
58662;BME280;44432;49.786;22.760;2022-12-29T05:44:09;99465.77;;;4.00;49.39
58662;BME280;44432;49.786;22.760;2022-12-29T05:46:40;99471.14;;;4.05;49.60
58662;BME280;44432;49.786;22.760;2022-12-29T05:49:11;99468.58;;;4.11;49.30
58662;BME280;44432;49.786;22.760;2022-12-29T05:55:06;99473.05;;;4.24;48.84
58662;BME280;44432;49.786;22.760;2022-12-29T05:57:38;99470.24;;;4.30;48.97
58662;BME280;44432;49.786;22.760;2022-12-29T06:00:11;99471.23;;;4.31;48.70
58662;BME280;44432;49.786;22.760;2022-12-29T06:02:40;99474.05;;;4.40;48.74
58662;BME280;44432;49.786;22.760;2022-12-29T06:05:11;99471.20;;;4.42;48.37
58662;BME280;44432;49.786;22.760;2022-12-29T06:07:43;99473.66;;;4.48;48.56
58662;BME280;44432;49.786;22.760;2022-12-29T06:10:14;99467.54;;;4.52;48.64
58662;BME280;44432;49.786;22.760;2022-12-29T06:12:45;99470.11;;;4.55;48.29
58662;BME280;44432;49.786;22.760;2022-12-29T06:15:17;99477.89;;;4.54;48.01
58662;BME280;44432;49.786;22.760;2022-12-29T06:17:48;99476.73;;;4.65;48.20
58662;BME280;44432;49.786;22.760;2022-12-29T06:20:19;99464.92;;;4.67;48.06
58662;BME280;44432;49.786;22.760;2022-12-29T06:22:50;99469.04;;;4.70;48.38
58662;BME280;44432;49.786;22.760;2022-12-29T06:25:21;99459.63;;;4.70;48.13
58662;BME280;44432;49.786;22.760;2022-12-29T06:27:52;99461.70;;;4.73;48.10
58662;BME280;44432;49.786;22.760;2022-12-29T06:30:23;99465.71;;;4.74;48.03
58662;BME280;44432;49.786;22.760;2022-12-29T06:32:54;99464.77;;;4.76;48.17
58662;BME280;44432;49.786;22.760;2022-12-29T06:35:25;99458.33;;;4.80;48.12
58662;BME280;44432;49.786;22.760;2022-12-29T06:37:58;99457.55;;;4.82;47.97
58662;BME280;44432;49.786;22.760;2022-12-29T06:40:29;99452.81;;;4.85;47.96
58662;BME280;44432;49.786;22.760;2022-12-29T06:43:00;99455.15;;;4.87;48.18
58662;BME280;44432;49.786;22.760;2022-12-29T06:45:31;99462.58;;;4.88;47.87
58662;BME280;44432;49.786;22.760;2022-12-29T06:48:02;99476.27;;;4.92;47.97
58662;BME280;44432;49.786;22.760;2022-12-29T06:50:33;99468.69;;;4.96;47.72
58662;BME280;44432;49.786;22.760;2022-12-29T06:53:04;99470.46;;;5.01;48.02
58662;BME280;44432;49.786;22.760;2022-12-29T06:55:36;99470.77;;;5.02;48.00
58662;BME280;44432;49.786;22.760;2022-12-29T06:58:07;99480.10;;;5.08;47.92
58662;BME280;44432;49.786;22.760;2022-12-29T07:00:41;99482.52;;;5.11;47.89
58662;BME280;44432;49.786;22.760;2022-12-29T07:03:15;99482.20;;;5.14;48.08
58662;BME280;44432;49.786;22.760;2022-12-29T07:05:46;99485.32;;;5.17;47.89
58662;BME280;44432;49.786;22.760;2022-12-29T07:08:17;99480.95;;;5.22;47.93
58662;BME280;44432;49.786;22.760;2022-12-29T07:10:48;99474.02;;;5.24;47.74
58662;BME280;44432;49.786;22.760;2022-12-29T07:13:20;99464.35;;;5.28;47.50
58662;BME280;44432;49.786;22.760;2022-12-29T07:15:51;99462.10;;;5.31;47.66
58662;BME280;44432;49.786;22.760;2022-12-29T07:18:22;99464.40;;;5.35;47.84
58662;BME280;44432;49.786;22.760;2022-12-29T07:20:53;99460.94;;;5.38;47.87
58662;BME280;44432;49.786;22.760;2022-12-29T07:23:25;99469.79;;;5.41;47.73
58662;BME280;44432;49.786;22.760;2022-12-29T07:26:02;99471.43;;;5.45;47.81
58662;BME280;44432;49.786;22.760;2022-12-29T07:28:33;99476.80;;;5.49;47.74
58662;BME280;44432;49.786;22.760;2022-12-29T07:31:05;99469.36;;;5.51;47.85
58662;BME280;44432;49.786;22.760;2022-12-29T07:33:36;99466.22;;;5.56;47.90
58662;BME280;44432;49.786;22.760;2022-12-29T07:36:08;99461.63;;;5.61;47.76
58662;BME280;44432;49.786;22.760;2022-12-29T07:38:39;99460.70;;;5.66;47.90
58662;BME280;44432;49.786;22.760;2022-12-29T07:41:11;99465.11;;;5.72;48.13
58662;BME280;44432;49.786;22.760;2022-12-29T07:43:42;99463.21;;;5.76;47.79
58662;BME280;44432;49.786;22.760;2022-12-29T07:46:13;99461.14;;;5.77;47.70
58662;BME280;44432;49.786;22.760;2022-12-29T07:48:44;99460.99;;;5.81;47.34
58662;BME280;44432;49.786;22.760;2022-12-29T07:51:15;99454.30;;;5.83;47.53
58662;BME280;44432;49.786;22.760;2022-12-29T07:53:46;99457.73;;;5.87;47.51
58662;BME280;44432;49.786;22.760;2022-12-29T07:56:17;99451.17;;;5.91;47.56
58662;BME280;44432;49.786;22.760;2022-12-29T07:58:48;99452.40;;;5.94;47.66
58662;BME280;44432;49.786;22.760;2022-12-29T08:01:19;99446.86;;;5.98;47.65
58662;BME280;44432;49.786;22.760;2022-12-29T08:03:50;99438.12;;;6.01;47.51
58662;BME280;44432;49.786;22.760;2022-12-29T08:06:21;99439.64;;;6.06;47.55
58662;BME280;44432;49.786;22.760;2022-12-29T08:08:52;99442.21;;;6.11;47.61
58662;BME280;44432;49.786;22.760;2022-12-29T08:11:23;99433.41;;;6.16;47.92
58662;BME280;44432;49.786;22.760;2022-12-29T08:13:54;99435.31;;;6.22;47.93
58662;BME280;44432;49.786;22.760;2022-12-29T08:16:24;99429.45;;;6.27;47.77
58662;BME280;44432;49.786;22.760;2022-12-29T08:18:56;99427.58;;;6.31;48.26
58662;BME280;44432;49.786;22.760;2022-12-29T08:21:28;99424.11;;;6.37;48.17
58662;BME280;44432;49.786;22.760;2022-12-29T08:23:59;99417.98;;;6.43;48.48
58662;BME280;44432;49.786;22.760;2022-12-29T08:26:30;99415.66;;;6.47;48.28
58662;BME280;44432;49.786;22.760;2022-12-29T08:29:01;99414.44;;;6.47;48.34
58662;BME280;44432;49.786;22.760;2022-12-29T08:31:31;99411.08;;;6.52;48.84
58662;BME280;44432;49.786;22.760;2022-12-29T08:34:02;99414.92;;;6.56;48.82
58662;BME280;44432;49.786;22.760;2022-12-29T08:36:33;99411.90;;;6.60;48.75
58662;BME280;44432;49.786;22.760;2022-12-29T08:39:04;99412.41;;;6.63;48.92
58662;BME280;44432;49.786;22.760;2022-12-29T08:41:35;99421.87;;;6.67;49.33
58662;BME280;44432;49.786;22.760;2022-12-29T08:44:06;99424.48;;;6.69;49.22
58662;BME280;44432;49.786;22.760;2022-12-29T08:46:37;99413.27;;;6.70;49.10
58662;BME280;44432;49.786;22.760;2022-12-29T08:49:08;99412.63;;;6.71;49.21
58662;BME280;44432;49.786;22.760;2022-12-29T08:51:39;99402.69;;;6.72;49.28
58662;BME280;44432;49.786;22.760;2022-12-29T08:54:10;99398.66;;;6.74;49.79
58662;BME280;44432;49.786;22.760;2022-12-29T08:56:41;99395.27;;;6.73;49.54
58662;BME280;44432;49.786;22.760;2022-12-29T08:59:12;99397.64;;;6.72;49.40
58662;BME280;44432;49.786;22.760;2022-12-29T09:01:42;99403.71;;;6.74;49.66
58662;BME280;44432;49.786;22.760;2022-12-29T09:04:13;99399.04;;;6.75;49.69
58662;BME280;44432;49.786;22.760;2022-12-29T09:06:44;99390.67;;;6.78;49.77
58662;BME280;44432;49.786;22.760;2022-12-29T09:09:15;99393.73;;;6.81;50.14
58662;BME280;44432;49.786;22.760;2022-12-29T09:11:46;99393.15;;;6.83;50.20
58662;BME280;44432;49.786;22.760;2022-12-29T09:14:17;99398.69;;;6.86;49.51
58662;BME280;44432;49.786;22.760;2022-12-29T09:16:50;99391.95;;;6.87;49.72
58662;BME280;44432;49.786;22.760;2022-12-29T09:19:38;99390.13;;;6.91;49.66
58662;BME280;44432;49.786;22.760;2022-12-29T09:22:09;99389.91;;;6.94;49.80
58662;BME280;44432;49.786;22.760;2022-12-29T09:24:40;99388.10;;;6.97;49.90
58662;BME280;44432;49.786;22.760;2022-12-29T09:27:11;99386.22;;;7.03;49.75
58662;BME280;44432;49.786;22.760;2022-12-29T09:29:42;99380.55;;;7.10;50.18
58662;BME280;44432;49.786;22.760;2022-12-29T09:32:12;99373.14;;;7.21;50.17
58662;BME280;44432;49.786;22.760;2022-12-29T09:34:43;99361.77;;;7.35;50.32
58662;BME280;44432;49.786;22.760;2022-12-29T09:37:14;99359.75;;;7.51;49.96
58662;BME280;44432;49.786;22.760;2022-12-29T09:39:45;99364.10;;;7.65;49.89
58662;BME280;44432;49.786;22.760;2022-12-29T09:42:22;99356.27;;;7.78;49.72
58662;BME280;44432;49.786;22.760;2022-12-29T09:45:07;99352.55;;;7.91;49.54
58662;BME280;44432;49.786;22.760;2022-12-29T09:47:40;99339.72;;;8.04;49.42
58662;BME280;44432;49.786;22.760;2022-12-29T09:50:17;99334.39;;;8.15;49.80
58662;BME280;44432;49.786;22.760;2022-12-29T09:52:54;99330.69;;;8.28;49.32
58662;BME280;44432;49.786;22.760;2022-12-29T09:55:32;99332.52;;;8.38;49.55
58662;BME280;44432;49.786;22.760;2022-12-29T09:58:10;99333.14;;;8.44;49.27
58662;BME280;44432;49.786;22.760;2022-12-29T10:00:50;99327.49;;;8.48;49.53
58662;BME280;44432;49.786;22.760;2022-12-29T10:03:24;99322.67;;;8.49;49.30
58662;BME280;44432;49.786;22.760;2022-12-29T10:06:01;99320.96;;;8.46;49.43
58662;BME280;44432;49.786;22.760;2022-12-29T10:08:39;99320.87;;;8.40;49.46
58662;BME280;44432;49.786;22.760;2022-12-29T10:11:20;99325.14;;;8.34;49.53
58662;BME280;44432;49.786;22.760;2022-12-29T10:14:09;99329.24;;;8.31;49.53
58662;BME280;44432;49.786;22.760;2022-12-29T10:16:49;99320.48;;;8.27;49.75
58662;BME280;44432;49.786;22.760;2022-12-29T10:19:35;99320.89;;;8.26;49.89
58662;BME280;44432;49.786;22.760;2022-12-29T10:22:24;99324.77;;;8.25;49.75
58662;BME280;44432;49.786;22.760;2022-12-29T10:25:02;99321.86;;;8.26;49.84
58662;BME280;44432;49.786;22.760;2022-12-29T10:27:34;99317.45;;;8.26;49.86
58662;BME280;44432;49.786;22.760;2022-12-29T10:30:10;99317.98;;;8.29;50.10
58662;BME280;44432;49.786;22.760;2022-12-29T10:32:45;99317.27;;;8.34;50.17
58662;BME280;44432;49.786;22.760;2022-12-29T10:35:20;99320.73;;;8.40;49.96
58662;BME280;44432;49.786;22.760;2022-12-29T10:37:56;99318.97;;;8.43;49.76
58662;BME280;44432;49.786;22.760;2022-12-29T10:40:33;99319.79;;;8.46;49.93
58662;BME280;44432;49.786;22.760;2022-12-29T10:43:18;99311.86;;;8.49;50.12
58662;BME280;44432;49.786;22.760;2022-12-29T10:45:52;99314.80;;;8.53;50.14
58662;BME280;44432;49.786;22.760;2022-12-29T10:48:27;99308.05;;;8.57;50.24
58662;BME280;44432;49.786;22.760;2022-12-29T10:51:00;99301.10;;;8.62;50.33
58662;BME280;44432;49.786;22.760;2022-12-29T10:53:37;99299.85;;;8.67;50.20
58662;BME280;44432;49.786;22.760;2022-12-29T10:56:16;99303.46;;;8.72;50.34
58662;BME280;44432;49.786;22.760;2022-12-29T10:58:52;99304.08;;;8.76;50.16
58662;BME280;44432;49.786;22.760;2022-12-29T11:01:28;99298.05;;;8.79;50.52
58662;BME280;44432;49.786;22.760;2022-12-29T11:04:04;99293.73;;;8.84;50.34
58662;BME280;44432;49.786;22.760;2022-12-29T11:06:37;99295.27;;;8.87;50.45
58662;BME280;44432;49.786;22.760;2022-12-29T11:09:14;99293.81;;;8.92;50.29
58662;BME280;44432;49.786;22.760;2022-12-29T11:11:46;99293.98;;;8.96;50.29
58662;BME280;44432;49.786;22.760;2022-12-29T11:14:21;99291.48;;;9.00;50.47
58662;BME280;44432;49.786;22.760;2022-12-29T11:16:59;99287.02;;;9.07;50.62
58662;BME280;44432;49.786;22.760;2022-12-29T11:19:32;99285.40;;;9.14;50.45
58662;BME280;44432;49.786;22.760;2022-12-29T11:22:20;99286.21;;;9.20;50.41
58662;BME280;44432;49.786;22.760;2022-12-29T11:24:53;99284.75;;;9.27;50.18
58662;BME280;44432;49.786;22.760;2022-12-29T11:27:25;99285.43;;;9.27;49.85
58662;BME280;44432;49.786;22.760;2022-12-29T11:29:56;99282.98;;;9.23;49.61
58662;BME280;44432;49.786;22.760;2022-12-29T11:32:28;99290.52;;;9.16;49.51
58662;BME280;44432;49.786;22.760;2022-12-29T11:35:00;99295.25;;;9.10;49.69
58662;BME280;44432;49.786;22.760;2022-12-29T11:37:37;99305.61;;;9.06;49.96
58662;BME280;44432;49.786;22.760;2022-12-29T11:40:18;99308.85;;;9.03;49.91
58662;BME280;44432;49.786;22.760;2022-12-29T11:42:52;99314.69;;;8.98;49.83
58662;BME280;44432;49.786;22.760;2022-12-29T11:45:26;99318.05;;;8.93;49.85
58662;BME280;44432;49.786;22.760;2022-12-29T11:47:59;99319.16;;;8.87;49.85
58662;BME280;44432;49.786;22.760;2022-12-29T11:50:33;99323.66;;;8.86;50.38
58662;BME280;44432;49.786;22.760;2022-12-29T11:53:07;99328.56;;;8.86;50.25
58662;BME280;44432;49.786;22.760;2022-12-29T11:55:52;99332.25;;;8.86;50.38
58662;BME280;44432;49.786;22.760;2022-12-29T11:58:30;99328.02;;;8.86;50.43
58662;BME280;44432;49.786;22.760;2022-12-29T12:01:05;99329.21;;;8.85;50.55
58662;BME280;44432;49.786;22.760;2022-12-29T12:03:40;99322.52;;;8.87;50.23
58662;BME280;44432;49.786;22.760;2022-12-29T12:06:16;99322.84;;;8.80;50.06
58662;BME280;44432;49.786;22.760;2022-12-29T12:08:53;99324.23;;;8.75;50.47
58662;BME280;44432;49.786;22.760;2022-12-29T12:11:28;99337.56;;;8.74;50.56
58662;BME280;44432;49.786;22.760;2022-12-29T12:14:07;99340.84;;;8.70;50.52
58662;BME280;44432;49.786;22.760;2022-12-29T12:16:48;99345.66;;;8.71;50.69
58662;BME280;44432;49.786;22.760;2022-12-29T12:19:26;99338.45;;;8.72;51.10
58662;BME280;44432;49.786;22.760;2022-12-29T12:22:10;99348.38;;;8.75;50.95
58662;BME280;44432;49.786;22.760;2022-12-29T12:24:51;99350.25;;;8.80;50.95
58662;BME280;44432;49.786;22.760;2022-12-29T12:27:26;99353.14;;;8.85;50.97
58662;BME280;44432;49.786;22.760;2022-12-29T12:30:03;99343.47;;;8.88;50.85
58662;BME280;44432;49.786;22.760;2022-12-29T12:32:41;99345.98;;;8.89;51.02
58662;BME280;44432;49.786;22.760;2022-12-29T12:35:23;99344.44;;;8.91;50.96
58662;BME280;44432;49.786;22.760;2022-12-29T12:38:16;99337.33;;;8.97;51.16
58662;BME280;44432;49.786;22.760;2022-12-29T12:41:03;99337.95;;;9.04;51.33
58662;BME280;44432;49.786;22.760;2022-12-29T12:43:43;99331.15;;;9.13;51.38
58662;BME280;44432;49.786;22.760;2022-12-29T12:46:37;99327.83;;;9.20;51.16
58662;BME280;44432;49.786;22.760;2022-12-29T12:52:53;99323.29;;;9.21;50.66
58662;BME280;44432;49.786;22.760;2022-12-29T12:55:43;99321.63;;;9.16;50.75
58662;BME280;44432;49.786;22.760;2022-12-29T12:58:22;99312.71;;;9.13;51.10
58662;BME280;44432;49.786;22.760;2022-12-29T13:01:10;99313.97;;;9.13;51.31
58662;BME280;44432;49.786;22.760;2022-12-29T13:03:58;99307.16;;;9.11;51.17
58662;BME280;44432;49.786;22.760;2022-12-29T13:06:41;99306.15;;;9.06;51.33
58662;BME280;44432;49.786;22.760;2022-12-29T13:09:29;99314.88;;;8.98;51.42
58662;BME280;44432;49.786;22.760;2022-12-29T13:12:15;99317.52;;;8.92;51.74
58662;BME280;44432;49.786;22.760;2022-12-29T13:14:59;99325.07;;;8.85;51.91
58662;BME280;44432;49.786;22.760;2022-12-29T13:17:39;99327.80;;;8.76;51.83
58662;BME280;44432;49.786;22.760;2022-12-29T13:20:23;99332.24;;;8.67;52.07
58662;BME280;44432;49.786;22.760;2022-12-29T13:23:00;99335.21;;;8.57;52.11
58662;BME280;44432;49.786;22.760;2022-12-29T13:25:39;99331.46;;;8.49;52.43
58662;BME280;44432;49.786;22.760;2022-12-29T13:28:19;99329.86;;;8.44;52.85
58662;BME280;44432;49.786;22.760;2022-12-29T13:30:59;99333.36;;;8.37;52.58
58662;BME280;44432;49.786;22.760;2022-12-29T13:33:41;99328.96;;;8.31;53.01
58662;BME280;44432;49.786;22.760;2022-12-29T13:36:25;99325.25;;;8.24;53.36
58662;BME280;44432;49.786;22.760;2022-12-29T13:39:04;99332.55;;;8.19;53.16
58662;BME280;44432;49.786;22.760;2022-12-29T13:41:41;99334.63;;;8.13;53.49
58662;BME280;44432;49.786;22.760;2022-12-29T13:44:20;99339.78;;;8.09;53.89
58662;BME280;44432;49.786;22.760;2022-12-29T13:46:54;99347.48;;;8.04;53.87
58662;BME280;44432;49.786;22.760;2022-12-29T13:49:27;99339.52;;;7.99;54.24
58662;BME280;44432;49.786;22.760;2022-12-29T13:52:03;99333.11;;;7.94;54.43